createdAt,value
2022-10-13T00:00:18.748Z,70.15
2022-10-13T00:03:11.791Z,70.42
2022-10-13T00:05:49.257Z,69.98
2022-10-13T00:08:26.746Z,69.80
2022-10-13T00:11:00.837Z,69.97
2022-10-13T00:13:33.711Z,70.11
2022-10-13T00:16:06.594Z,70.13
2022-10-13T00:18:39.853Z,70.23
2022-10-13T00:21:15.663Z,71.04
2022-10-13T00:23:50.121Z,70.54
2022-10-13T00:26:27.226Z,70.22
2022-10-13T00:29:00.408Z,70.21
2022-10-13T00:31:34.726Z,70.18
2022-10-13T00:34:07.968Z,70.16
2022-10-13T00:36:40.962Z,69.89
2022-10-13T00:39:13.434Z,69.89
2022-10-13T00:41:46.115Z,69.74
2022-10-13T00:44:53.679Z,69.50
2022-10-13T00:47:26.465Z,69.51
2022-10-13T00:49:59.771Z,69.41
2022-10-13T00:52:34.879Z,69.39
2022-10-13T00:55:10.025Z,69.45
2022-10-13T00:57:45.992Z,69.83
2022-10-13T01:00:18.990Z,69.78
2022-10-13T01:02:53.623Z,69.77
2022-10-13T01:05:27.621Z,69.74
2022-10-13T01:08:02.898Z,69.76
2022-10-13T01:11:07.498Z,70.28
2022-10-13T01:14:10.162Z,70.40
2022-10-13T01:16:59.497Z,70.07
2022-10-13T01:20:06.200Z,69.81
2022-10-13T01:22:50.205Z,69.69
2022-10-13T01:25:31.898Z,69.62
2022-10-13T01:28:36.440Z,69.54
2022-10-13T01:31:36.733Z,69.55
2022-10-13T01:34:34.141Z,69.67
2022-10-13T01:37:28.362Z,69.65
2022-10-13T01:40:09.603Z,69.77
2022-10-13T01:43:09.068Z,69.87
2022-10-13T01:45:58.203Z,69.91
2022-10-13T01:48:31.819Z,69.61
2022-10-13T01:51:04.966Z,69.49
2022-10-13T01:53:38.786Z,69.35
2022-10-13T01:56:11.343Z,69.17
2022-10-13T01:58:49.818Z,69.38
2022-10-13T02:01:24.641Z,69.43
2022-10-13T02:03:59.411Z,69.48
2022-10-13T02:06:55.479Z,69.25
2022-10-13T02:09:45.590Z,69.51
2022-10-13T02:12:46.148Z,69.60
2022-10-13T02:15:26.163Z,69.49
2022-10-13T02:17:59.766Z,69.56
2022-10-13T02:20:33.748Z,69.54
2022-10-13T02:23:14.659Z,69.37
2022-10-13T02:25:50.534Z,69.32
2022-10-13T02:28:23.676Z,69.25
2022-10-13T02:30:56.943Z,69.36
2022-10-13T02:33:29.874Z,69.75
2022-10-13T02:36:02.575Z,69.82
2022-10-13T02:38:35.025Z,69.86
2022-10-13T02:41:07.497Z,69.92
2022-10-13T02:43:39.879Z,69.99
2022-10-13T02:46:12.397Z,70.17
2022-10-13T02:48:44.835Z,70.15
2022-10-13T02:51:17.567Z,70.30
2022-10-13T02:53:49.831Z,70.07
2022-10-13T02:56:22.227Z,69.97
2022-10-13T02:58:54.542Z,69.89
2022-10-13T03:01:27.040Z,69.81
2022-10-13T03:03:59.365Z,69.84
2022-10-13T03:06:32.111Z,69.73
2022-10-13T03:09:04.915Z,69.68
2022-10-13T03:11:37.350Z,69.69
2022-10-13T03:14:09.677Z,69.70
2022-10-13T03:16:42.563Z,69.79
2022-10-13T03:19:15.668Z,69.80
2022-10-13T03:21:48.444Z,69.63
2022-10-13T03:24:21.438Z,69.65
2022-10-13T03:26:54.827Z,69.63
2022-10-13T03:29:27.651Z,69.43
2022-10-13T03:32:00.232Z,69.69
2022-10-13T03:34:33.268Z,69.53
2022-10-13T03:37:06.706Z,69.57
2022-10-13T03:39:46.451Z,69.54
2022-10-13T03:42:19.397Z,69.62
2022-10-13T03:44:56.275Z,69.70
2022-10-13T03:47:29.568Z,69.87
2022-10-13T03:50:01.900Z,69.95
2022-10-13T03:52:34.914Z,69.92
2022-10-13T03:55:10.489Z,69.82
2022-10-13T03:57:44.364Z,69.78
2022-10-13T04:00:18.445Z,69.74
2022-10-13T04:02:52.417Z,69.60
2022-10-13T04:05:26.785Z,69.66
2022-10-13T04:07:59.814Z,69.57
2022-10-13T04:10:33.875Z,69.47
2022-10-13T04:13:06.530Z,69.79
2022-10-13T04:15:43.119Z,69.67
2022-10-13T04:18:15.606Z,69.81
2022-10-13T04:20:48.175Z,69.88
2022-10-13T04:23:20.738Z,69.97
2022-10-13T04:25:53.676Z,69.97
2022-10-13T04:28:27.019Z,69.86
2022-10-13T04:31:01.948Z,69.87
2022-10-13T04:33:36.806Z,69.72
2022-10-13T04:36:11.299Z,69.82
2022-10-13T04:38:44.718Z,69.83
2022-10-13T04:41:18.835Z,69.45
2022-10-13T04:43:52.462Z,69.58
2022-10-13T04:46:29.335Z,69.65
2022-10-13T04:49:02.067Z,69.91
2022-10-13T04:51:38.643Z,69.75
2022-10-13T04:54:11.555Z,69.85
2022-10-13T04:56:46.472Z,70.10
2022-10-13T04:59:19.179Z,69.97
2022-10-13T05:01:52.266Z,69.99
2022-10-13T05:04:25.169Z,69.93
2022-10-13T05:07:18.036Z,69.82
2022-10-13T05:09:53.956Z,69.93
2022-10-13T05:12:26.627Z,69.76
2022-10-13T05:14:59.513Z,70.21
2022-10-13T05:17:35.218Z,70.00
2022-10-13T05:20:17.469Z,69.87
2022-10-13T05:22:50.015Z,69.93
2022-10-13T05:25:22.822Z,70.16
2022-10-13T05:27:55.309Z,70.26
2022-10-13T05:30:27.870Z,70.28
2022-10-13T05:33:01.764Z,70.34
2022-10-13T05:35:34.282Z,70.10
2022-10-13T05:38:07.012Z,70.02
2022-10-13T05:40:39.776Z,70.11
2022-10-13T05:43:12.752Z,70.15
2022-10-13T05:45:45.706Z,70.07
2022-10-13T05:48:18.544Z,70.13
2022-10-13T05:50:51.528Z,70.14
2022-10-13T05:53:26.985Z,70.06
2022-10-13T05:56:06.705Z,70.16
2022-10-13T05:58:45.092Z,70.28
2022-10-13T06:01:21.780Z,70.15
2022-10-13T06:03:56.326Z,70.42
2022-10-13T06:06:31.499Z,70.58
2022-10-13T06:09:05.427Z,70.95
2022-10-13T06:11:38.362Z,70.66
2022-10-13T06:14:11.931Z,70.76
2022-10-13T06:16:45.222Z,70.64
2022-10-13T06:19:18.605Z,70.84
2022-10-13T06:21:51.683Z,70.94
2022-10-13T06:24:24.836Z,70.83
2022-10-13T06:26:58.120Z,71.14
2022-10-13T06:29:31.238Z,71.26
2022-10-13T06:32:05.102Z,71.38
2022-10-13T06:34:38.225Z,71.26
2022-10-13T06:37:11.151Z,71.08
2022-10-13T06:39:43.604Z,71.13
2022-10-13T06:42:17.096Z,71.48
2022-10-13T06:44:50.517Z,71.65
2022-10-13T06:47:23.585Z,71.82
2022-10-13T06:49:56.557Z,71.86
2022-10-13T06:52:29.701Z,71.92
2022-10-13T06:55:02.595Z,72.07
2022-10-13T06:57:35.775Z,72.38
2022-10-13T07:00:11.973Z,72.59
2022-10-13T07:02:45.491Z,72.57
2022-10-13T07:05:18.818Z,72.78
2022-10-13T07:07:57.785Z,72.83
2022-10-13T07:10:31.006Z,72.51
2022-10-13T07:13:05.239Z,72.10
2022-10-13T07:15:42.365Z,72.43
2022-10-13T07:18:15.500Z,72.47
2022-10-13T07:20:48.590Z,72.28
2022-10-13T07:23:22.115Z,71.94
2022-10-13T07:25:57.581Z,72.01
2022-10-13T07:28:31.459Z,71.88
2022-10-13T07:31:15.728Z,71.92
2022-10-13T07:33:52.228Z,71.60
2022-10-13T07:36:29.774Z,71.53
2022-10-13T07:39:04.246Z,71.45
2022-10-13T07:41:38.612Z,71.39
2022-10-13T07:44:12.130Z,71.38
2022-10-13T07:46:45.990Z,71.40
2022-10-13T07:49:20.850Z,71.41
2022-10-13T07:51:53.795Z,70.91
2022-10-13T07:54:27.608Z,70.70
2022-10-13T07:57:00.957Z,70.56
2022-10-13T07:59:37.427Z,70.42
2022-10-13T08:02:11.282Z,70.62
2022-10-13T08:04:44.135Z,71.17
2022-10-13T08:07:18.293Z,71.25
2022-10-13T08:09:51.825Z,71.21
2022-10-13T08:12:24.889Z,71.14
2022-10-13T08:15:00.499Z,71.07
2022-10-13T08:17:37.444Z,70.85
2022-10-13T08:20:11.583Z,70.69
2022-10-13T08:22:44.628Z,70.44
2022-10-13T08:25:18.265Z,70.48
2022-10-13T08:27:53.061Z,70.39
2022-10-13T08:30:28.227Z,69.90
2022-10-13T08:33:01.178Z,70.03
2022-10-13T08:35:35.127Z,69.98
2022-10-13T08:38:08.070Z,70.14
2022-10-13T08:40:41.371Z,70.24
2022-10-13T08:43:21.642Z,70.33
2022-10-13T08:46:00.598Z,70.22
2022-10-13T08:48:43.606Z,69.99
2022-10-13T08:51:18.029Z,69.63
2022-10-13T08:53:51.886Z,69.53
2022-10-13T08:56:29.918Z,69.14
2022-10-13T08:59:05.055Z,68.88
2022-10-13T09:01:39.464Z,68.21
2022-10-13T09:04:33.718Z,68.58
2022-10-13T09:07:14.163Z,68.87
2022-10-13T09:09:47.270Z,68.85
2022-10-13T09:12:24.896Z,68.48
2022-10-13T09:15:06.047Z,68.55
2022-10-13T09:17:40.322Z,68.45
2022-10-13T09:20:25.911Z,68.31
2022-10-13T09:23:19.528Z,67.94
2022-10-13T09:25:57.244Z,67.65
2022-10-13T09:28:32.811Z,67.64
2022-10-13T09:31:21.251Z,67.79
2022-10-13T09:34:02.544Z,67.36
2022-10-13T09:36:36.071Z,66.78
2022-10-13T09:39:16.734Z,66.87
2022-10-13T09:41:50.648Z,66.82
2022-10-13T09:44:32.866Z,66.66
2022-10-13T09:47:06.526Z,66.42
2022-10-13T09:49:40.662Z,66.63
2022-10-13T09:52:16.200Z,66.92
2022-10-13T09:54:55.480Z,66.75
2022-10-13T09:57:52.023Z,66.78
2022-10-13T10:00:27.491Z,66.76
2022-10-13T10:03:21.650Z,66.68
2022-10-13T10:06:05.813Z,66.76
2022-10-13T10:09:08.629Z,66.72
2022-10-13T10:11:49.660Z,66.38
2022-10-13T10:14:36.221Z,66.38
2022-10-13T10:17:41.735Z,66.44
2022-10-13T10:20:19.311Z,66.34
2022-10-13T10:22:57.720Z,66.40
2022-10-13T10:25:50.874Z,66.64
2022-10-13T10:28:59.636Z,66.70
2022-10-13T10:31:49.657Z,66.84
2022-10-13T10:34:49.337Z,66.86
2022-10-13T10:37:44.318Z,67.24
2022-10-13T10:40:37.104Z,67.35
2022-10-13T10:43:35.148Z,67.44
2022-10-13T10:46:16.579Z,67.53
2022-10-13T10:48:51.190Z,67.94
2022-10-13T10:51:28.801Z,67.66
2022-10-13T10:54:08.004Z,67.61
2022-10-13T10:56:55.253Z,67.93
2022-10-13T10:59:57.066Z,67.07
2022-10-13T11:03:03.842Z,67.28
2022-10-13T11:06:00.606Z,67.07
2022-10-13T11:08:49.531Z,67.20
2022-10-13T11:11:37.257Z,67.31
2022-10-13T11:14:30.131Z,67.37
2022-10-13T11:17:18.358Z,67.72
2022-10-13T11:19:51.959Z,67.87
2022-10-13T11:22:26.486Z,67.74
2022-10-13T11:25:25.513Z,67.49
2022-10-13T11:27:58.139Z,67.53
2022-10-13T11:30:48.112Z,68.00
2022-10-13T11:33:54.305Z,68.19
2022-10-13T11:36:52.821Z,66.96
2022-10-13T11:39:28.613Z,66.97
2022-10-13T11:42:24.239Z,67.49
2022-10-13T11:45:14.120Z,67.77
2022-10-13T11:48:02.368Z,67.38
2022-10-13T11:51:06.545Z,66.71
2022-10-13T11:53:51.137Z,66.58
2022-10-13T11:56:39.710Z,66.92
2022-10-13T11:59:32.102Z,66.50
2022-10-13T12:02:19.188Z,66.39
2022-10-13T12:05:05.603Z,66.26
2022-10-13T12:07:45.276Z,66.42
2022-10-13T12:10:31.666Z,66.69
2022-10-13T12:13:07.210Z,66.62
2022-10-13T12:15:45.567Z,66.55
2022-10-13T12:18:34.661Z,66.61
2022-10-13T12:21:15.776Z,66.38
2022-10-13T12:23:49.599Z,64.46
2022-10-13T12:26:27.064Z,65.19
2022-10-13T12:29:04.509Z,65.58
2022-10-13T12:31:48.415Z,65.17
2022-10-13T12:34:25.665Z,65.42
2022-10-13T12:37:04.283Z,65.81
2022-10-13T12:39:38.414Z,65.81
2022-10-13T12:42:13.631Z,66.09
2022-10-13T12:44:48.249Z,66.21
2022-10-13T12:47:41.953Z,66.14
2022-10-13T12:50:37.581Z,66.41
2022-10-13T12:53:24.801Z,66.42
2022-10-13T12:56:04.563Z,67.04
2022-10-13T12:58:45.119Z,67.20
2022-10-13T13:01:17.972Z,67.42
2022-10-13T13:03:59.820Z,67.60
2022-10-13T13:06:36.887Z,67.70
2022-10-13T13:09:28.086Z,67.33
2022-10-13T13:12:11.308Z,67.14
2022-10-13T13:14:51.605Z,67.24
2022-10-13T13:20:33.040Z,68.00
2022-10-13T13:23:06.450Z,67.35
2022-10-13T13:25:39.910Z,67.65
2022-10-13T13:28:20.138Z,68.17
2022-10-13T13:30:53.297Z,68.57
2022-10-13T13:33:26.510Z,68.88
2022-10-13T13:36:00.416Z,68.94
2022-10-13T13:38:34.059Z,68.97
2022-10-13T13:41:07.629Z,68.84
2022-10-13T13:43:41.246Z,68.79
2022-10-13T13:46:21.387Z,68.51
2022-10-13T13:48:55.042Z,68.18
2022-10-13T13:51:27.959Z,68.14
2022-10-13T13:54:00.647Z,68.13
2022-10-13T13:56:34.140Z,68.14
2022-10-13T13:59:07.473Z,68.26
2022-10-13T14:01:40.557Z,68.37
2022-10-13T14:04:13.453Z,68.47
2022-10-13T14:06:46.513Z,68.70
2022-10-13T14:09:19.545Z,68.78
2022-10-13T14:11:52.705Z,68.58
2022-10-13T14:14:25.976Z,68.38
2022-10-13T14:16:59.114Z,68.52
2022-10-13T14:19:33.140Z,68.64
2022-10-13T14:22:20.000Z,68.62
2022-10-13T14:24:56.324Z,68.70
2022-10-13T14:27:29.505Z,68.73
2022-10-13T14:30:06.305Z,68.89
2022-10-13T14:32:42.110Z,68.97
2022-10-13T14:35:15.241Z,69.17
2022-10-13T14:37:48.854Z,69.21
2022-10-13T14:40:21.840Z,69.25
2022-10-13T14:42:54.674Z,69.32
2022-10-13T14:45:27.669Z,69.46
2022-10-13T14:48:00.270Z,69.39
2022-10-13T14:50:34.935Z,69.46
2022-10-13T14:53:10.197Z,69.71
2022-10-13T14:55:43.394Z,69.57
2022-10-13T14:58:16.346Z,69.59
2022-10-13T15:00:49.288Z,69.59
2022-10-13T15:03:23.090Z,69.90
2022-10-13T15:05:56.572Z,69.94
2022-10-13T15:08:29.083Z,70.10
2022-10-13T15:11:08.612Z,70.17
2022-10-13T15:13:42.047Z,70.32
2022-10-13T15:16:29.222Z,70.39
2022-10-13T15:19:02.985Z,70.48
2022-10-13T15:21:36.144Z,70.62
2022-10-13T15:24:09.743Z,70.62
2022-10-13T15:26:42.745Z,70.64
2022-10-13T15:29:16.116Z,70.65
2022-10-13T15:31:50.103Z,70.53
2022-10-13T15:34:23.233Z,70.57
2022-10-13T15:36:56.655Z,70.67
2022-10-13T15:39:30.298Z,70.84
2022-10-13T15:42:03.564Z,70.87
2022-10-13T15:47:32.581Z,71.20
2022-10-13T15:50:06.398Z,71.28
2022-10-13T15:52:43.825Z,71.37
2022-10-13T15:55:19.840Z,71.44
2022-10-13T15:57:53.876Z,71.63
2022-10-13T16:00:27.450Z,71.78
2022-10-13T16:03:02.046Z,71.69
2022-10-13T16:05:36.699Z,71.71
2022-10-13T16:08:10.988Z,71.56
2022-10-13T16:10:45.627Z,71.51
2022-10-13T16:13:18.549Z,71.49
2022-10-13T16:16:04.418Z,71.42
2022-10-13T16:18:40.658Z,71.30
2022-10-13T16:21:18.471Z,71.58
2022-10-13T16:23:53.199Z,71.64
2022-10-13T16:26:26.313Z,71.63
2022-10-13T16:29:00.257Z,71.51
2022-10-13T16:31:34.348Z,71.50
2022-10-13T16:34:07.824Z,71.53
2022-10-13T16:36:41.085Z,71.69
2022-10-13T16:39:14.334Z,71.73
2022-10-13T16:41:48.458Z,71.76
2022-10-13T16:44:22.345Z,71.80
2022-10-13T16:46:57.555Z,71.63
2022-10-13T16:49:31.552Z,71.55
2022-10-13T16:52:05.637Z,71.45
2022-10-13T16:54:39.851Z,71.43
2022-10-13T16:57:14.102Z,71.40
2022-10-13T16:59:47.643Z,71.49
2022-10-13T17:02:21.872Z,71.56
2022-10-13T17:04:56.202Z,71.56
2022-10-13T17:07:29.880Z,71.66
2022-10-13T17:10:04.511Z,71.87
2022-10-13T17:12:38.674Z,71.92
2022-10-13T17:15:12.685Z,72.16
2022-10-13T17:17:46.635Z,72.01
2022-10-13T17:20:20.120Z,71.96
2022-10-13T17:22:55.114Z,71.94
2022-10-13T17:25:28.655Z,71.71
2022-10-13T17:28:01.728Z,71.69
2022-10-13T17:30:35.239Z,71.81
2022-10-13T17:33:09.352Z,71.86
2022-10-13T17:35:43.408Z,71.84
2022-10-13T17:38:17.600Z,71.99
2022-10-13T17:40:53.937Z,71.98
2022-10-13T17:43:30.046Z,72.00
2022-10-13T17:46:37.871Z,71.88
2022-10-13T17:49:15.320Z,72.01
2022-10-13T17:51:52.192Z,71.86
2022-10-13T17:54:26.197Z,71.83
2022-10-13T17:57:00.270Z,71.79
2022-10-13T17:59:33.791Z,71.89
2022-10-13T18:02:07.203Z,71.95
2022-10-13T18:04:41.739Z,72.02
2022-10-13T18:07:15.671Z,72.11
2022-10-13T18:09:53.162Z,72.11
2022-10-13T18:12:26.102Z,72.10
2022-10-13T18:14:59.198Z,72.04
2022-10-13T18:17:32.455Z,72.16
2022-10-13T18:20:05.614Z,72.26
2022-10-13T18:22:39.555Z,72.15
2022-10-13T18:25:13.766Z,72.02
2022-10-13T18:27:47.756Z,72.00
2022-10-13T18:30:22.526Z,72.15
2022-10-13T18:32:56.215Z,72.04
2022-10-13T18:35:32.401Z,72.23
2022-10-13T18:38:06.740Z,72.15
2022-10-13T18:40:44.941Z,72.22
2022-10-13T18:43:18.173Z,72.20
2022-10-13T18:45:51.540Z,72.22
2022-10-13T18:48:25.599Z,72.10
2022-10-13T18:50:59.274Z,72.02
2022-10-13T18:53:33.270Z,72.07
2022-10-13T18:56:10.548Z,72.07
2022-10-13T18:58:43.676Z,72.22
2022-10-13T19:01:19.201Z,72.36
2022-10-13T19:03:53.449Z,72.38
2022-10-13T19:06:32.733Z,72.50
2022-10-13T19:09:10.679Z,72.71
2022-10-13T19:11:43.965Z,72.57
2022-10-13T19:14:17.761Z,72.64
2022-10-13T19:16:50.231Z,72.52
2022-10-13T19:19:23.138Z,72.64
2022-10-13T19:21:57.819Z,72.86
2022-10-13T19:24:30.448Z,72.76
2022-10-13T19:27:04.555Z,72.98
2022-10-13T19:29:38.766Z,73.11
2022-10-13T19:32:12.718Z,73.14
2022-10-13T19:34:47.301Z,73.22
2022-10-13T19:37:21.335Z,73.49
2022-10-13T19:39:55.130Z,73.58
2022-10-13T19:42:29.537Z,73.52
2022-10-13T19:45:05.818Z,73.45
2022-10-13T19:47:40.115Z,73.38
2022-10-13T19:50:14.058Z,73.36
2022-10-13T19:52:48.624Z,73.43
2022-10-13T19:55:22.762Z,73.24
2022-10-13T19:57:57.131Z,73.27
2022-10-13T20:00:31.029Z,73.32
2022-10-13T20:03:06.644Z,73.63
2022-10-13T20:05:42.723Z,73.76
2022-10-13T20:08:17.155Z,73.74
2022-10-13T20:10:51.037Z,73.67
2022-10-13T20:13:25.106Z,73.57
2022-10-13T20:15:59.932Z,73.60
2022-10-13T20:18:34.066Z,73.41
2022-10-13T20:21:12.568Z,73.36
2022-10-13T20:23:45.893Z,73.47
2022-10-13T20:26:19.793Z,73.68
2022-10-13T20:28:55.215Z,73.77
2022-10-13T20:31:28.497Z,73.94
2022-10-13T20:34:01.514Z,73.93
2022-10-13T20:36:39.063Z,73.86
2022-10-13T20:39:12.310Z,73.96
2022-10-13T20:41:46.536Z,74.01
2022-10-13T20:44:20.821Z,73.87
2022-10-13T20:46:54.727Z,73.76
2022-10-13T20:49:29.641Z,73.66
2022-10-13T20:52:03.846Z,73.69
2022-10-13T20:54:36.671Z,73.80
2022-10-13T20:57:09.337Z,73.86
2022-10-13T20:59:42.054Z,73.88
2022-10-13T21:02:17.963Z,74.14
2022-10-13T21:04:52.957Z,74.15
2022-10-13T21:07:25.793Z,74.14
2022-10-13T21:09:58.589Z,74.14
2022-10-13T21:12:31.705Z,74.09
2022-10-13T21:15:04.752Z,74.16
2022-10-13T21:17:40.533Z,74.10
2022-10-13T21:20:16.781Z,74.08
2022-10-13T21:22:49.643Z,74.24
2022-10-13T21:25:22.822Z,74.42
2022-10-13T21:27:57.554Z,74.37
2022-10-13T21:30:31.255Z,74.43
2022-10-13T21:33:04.130Z,74.56
2022-10-13T21:35:38.436Z,74.65
2022-10-13T21:38:11.263Z,74.68
2022-10-13T21:40:49.367Z,74.71
2022-10-13T21:43:27.187Z,74.67
2022-10-13T21:46:10.261Z,74.57
2022-10-13T21:48:50.949Z,74.44
2022-10-13T21:51:25.778Z,74.48
2022-10-13T21:54:01.029Z,74.54
2022-10-13T21:56:36.478Z,74.47
2022-10-13T21:59:09.705Z,74.30
2022-10-13T22:01:43.121Z,74.31
2022-10-13T22:04:18.184Z,74.32
2022-10-13T22:06:51.114Z,74.52
2022-10-13T22:09:28.255Z,74.64
2022-10-13T22:12:05.864Z,74.92
2022-10-13T22:14:39.729Z,74.60
2022-10-13T22:17:13.557Z,74.69
2022-10-13T22:19:46.923Z,74.51
2022-10-13T22:22:20.732Z,75.09
2022-10-13T22:24:54.635Z,74.93
2022-10-13T22:27:28.837Z,74.90
2022-10-13T22:30:03.257Z,74.82
2022-10-13T22:32:37.435Z,74.78
2022-10-13T22:35:11.276Z,74.80
2022-10-13T22:37:45.654Z,74.75
2022-10-13T22:40:19.617Z,74.84
2022-10-13T22:42:54.054Z,74.74
2022-10-13T22:45:28.123Z,74.72
2022-10-13T22:48:02.693Z,74.43
2022-10-13T22:50:38.204Z,74.37
2022-10-13T22:53:12.582Z,74.37
2022-10-13T22:55:46.261Z,74.36
2022-10-13T22:58:20.461Z,74.45
2022-10-13T23:00:54.410Z,74.53
2022-10-13T23:03:28.757Z,74.61
2022-10-13T23:06:04.774Z,74.65
2022-10-13T23:08:38.032Z,74.69
2022-10-13T23:11:12.302Z,74.82
2022-10-13T23:13:45.630Z,74.84
2022-10-13T23:16:21.553Z,74.70
2022-10-13T23:18:54.720Z,74.69
2022-10-13T23:21:32.244Z,74.64
2022-10-13T23:24:07.729Z,74.61
2022-10-13T23:26:40.702Z,74.50
2022-10-13T23:29:13.656Z,74.52
2022-10-13T23:31:46.747Z,74.44
2022-10-13T23:34:19.559Z,74.59
2022-10-13T23:36:52.783Z,74.63
2022-10-13T23:39:25.586Z,74.57
2022-10-13T23:41:58.233Z,74.55
2022-10-13T23:44:31.047Z,74.70
2022-10-13T23:47:04.076Z,74.73
2022-10-13T23:49:36.863Z,74.63
2022-10-13T23:52:11.110Z,74.53
2022-10-13T23:54:44.324Z,74.67
2022-10-13T23:57:17.502Z,74.44
2022-10-13T23:59:50.188Z,74.40
